Time;durP1;ratioP1;P1;durP2;ratioP2;P2;SDS_P1;SDS_P2;PMS_P1;PMS_P2;Temp;Humidity;BMP_temperature;BMP_pressure;BME280_temperature;BME280_humidity;BME280_pressure;Samples;Min_cycle;Max_cycle;Signal;HPM_P1;HPM_P2
2023/03/16 00:01:30;;;;;;;7.70;4.95;;;;;;;2.10;63.81;100658.91;5135628;27;20063;-61
2023/03/16 00:03:57;;;;;;;8.75;4.70;;;;;;;2.10;64.56;100653.41;5061424;27;20046;-61
2023/03/16 00:06:24;;;;;;;7.07;4.53;;;;;;;2.10;64.44;100656.16;5031317;28;20060;-62
2023/03/16 00:08:51;;;;;;;7.65;5.00;;;;;;;2.11;63.96;100661.41;5030183;28;20057;-61
2023/03/16 00:11:20;;;;;;;8.80;4.35;;;;;;;2.13;64.20;100661.16;5031079;28;20060;-61
2023/03/16 00:13:47;;;;;;;7.60;4.82;;;;;;;2.08;64.39;100652.81;5030917;28;20050;-61
2023/03/16 00:16:15;;;;;;;7.32;4.78;;;;;;;2.07;63.47;100652.00;5031061;28;20412;-61
2023/03/16 00:18:43;;;;;;;8.23;4.63;;;;;;;2.06;64.03;100649.50;5029765;28;20056;-61
2023/03/16 00:21:12;;;;;;;9.35;4.88;;;;;;;1.99;64.12;100650.50;5031304;28;20053;-61
2023/03/16 00:23:41;;;;;;;7.83;4.97;;;;;;;1.98;63.74;100651.63;5031575;28;20510;-61
2023/03/16 00:26:09;;;;;;;7.28;4.72;;;;;;;1.95;64.74;100646.63;5030946;28;20372;-61
2023/03/16 00:28:37;;;;;;;6.32;4.40;;;;;;;1.97;64.88;100652.69;5030798;28;20060;-61
2023/03/16 00:31:07;;;;;;;8.00;4.38;;;;;;;1.90;63.79;100652.03;5030953;28;20049;-61
2023/03/16 00:33:34;;;;;;;6.68;4.03;;;;;;;1.90;64.08;100648.47;5028563;28;20069;-61
2023/03/16 00:36:02;;;;;;;7.53;4.25;;;;;;;1.85;64.59;100660.22;5030284;28;20054;-61
2023/03/16 00:38:33;;;;;;;10.10;4.75;;;;;;;1.84;63.96;100647.56;5030699;28;20053;-61
2023/03/16 00:41:02;;;;;;;7.70;4.60;;;;;;;1.88;63.92;100636.91;5030698;28;20058;-62
2023/03/16 00:43:30;;;;;;;8.48;4.28;;;;;;;1.86;64.59;100631.66;5009929;28;20050;-61
2023/03/16 00:46:05;;;;;;;7.25;3.95;;;;;;;1.88;64.19;100632.22;5011640;28;20480;-61
2023/03/16 00:48:33;;;;;;;7.35;4.10;;;;;;;1.87;63.72;100641.56;5017803;27;20052;-61
2023/03/16 00:51:01;;;;;;;7.22;4.22;;;;;;;1.88;64.19;100636.91;5030410;28;20049;-61
2023/03/16 00:53:28;;;;;;;7.97;4.78;;;;;;;1.86;64.05;100633.56;5029351;28;20054;-61
2023/03/16 00:55:56;;;;;;;8.40;5.75;;;;;;;1.86;64.87;100636.31;5030477;28;20056;-61
2023/03/16 00:58:23;;;;;;;10.15;5.88;;;;;;;1.83;65.38;100632.19;5030911;28;20060;-61
2023/03/16 01:00:52;;;;;;;9.60;6.30;;;;;;;1.80;64.91;100632.66;5030096;28;20054;-61
2023/03/16 01:03:21;;;;;;;10.85;6.65;;;;;;;1.75;65.42;100633.41;5028443;27;20431;-61
2023/03/16 01:05:48;;;;;;;9.70;5.63;;;;;;;1.78;65.13;100626.59;5011468;28;20488;-61
2023/03/16 01:08:15;;;;;;;7.38;4.70;;;;;;;1.79;65.69;100633.75;5010192;28;20057;-61
2023/03/16 01:10:44;;;;;;;6.95;4.50;;;;;;;1.81;65.43;100637.91;5011159;28;20054;-61
2023/03/16 01:13:11;;;;;;;7.65;5.45;;;;;;;1.80;65.29;100649.97;5010094;28;20057;-61
2023/03/16 01:15:39;;;;;;;9.32;5.88;;;;;;;1.84;65.06;100650.31;5010328;28;20061;-61
2023/03/16 01:18:07;;;;;;;10.70;5.68;;;;;;;1.86;65.37;100650.88;5014040;28;20415;-61
2023/03/16 01:20:35;;;;;;;13.65;7.13;;;;;;;1.89;65.71;100650.41;5030100;28;20061;-61
2023/03/16 01:23:02;;;;;;;42.42;20.92;;;;;;;1.91;66.12;100648.22;5029826;28;20057;-61
2023/03/16 01:25:31;;;;;;;21.50;11.50;;;;;;;1.94;66.17;100641.38;5029832;28;20391;-61
2023/03/16 01:27:58;;;;;;;10.73;6.80;;;;;;;2.00;65.58;100640.38;5029710;28;20057;-61
2023/03/16 01:30:25;;;;;;;8.98;6.05;;;;;;;1.98;65.88;100628.81;5029754;28;20061;-61
2023/03/16 01:32:52;;;;;;;7.10;4.63;;;;;;;2.02;64.96;100621.72;5027441;28;20053;-62
2023/03/16 01:35:20;;;;;;;6.30;4.65;;;;;;;2.01;65.41;100620.06;5010049;28;20080;-61
2023/03/16 01:37:49;;;;;;;9.55;4.63;;;;;;;2.06;64.14;100624.78;5010044;28;20050;-61
2023/03/16 01:40:17;;;;;;;5.75;3.63;;;;;;;2.06;64.84;100611.91;5010129;28;20480;-61
2023/03/16 01:42:48;;;;;;;5.20;3.42;;;;;;;2.12;63.45;100613.63;5023774;28;20061;-61
2023/03/16 01:45:54;;;;;;;7.13;3.60;;;;;;;2.19;63.66;100597.75;5030580;28;20057;-61
2023/03/16 01:48:24;;;;;;;4.80;3.47;;;;;;;2.32;61.87;100593.78;5028413;28;20068;-61
2023/03/16 01:50:52;;;;;;;4.97;2.90;;;;;;;2.38;60.61;100590.03;5029474;28;20060;-62
2023/03/16 01:53:23;;;;;;;6.82;2.97;;;;;;;2.52;59.30;100592.38;5029236;28;20492;-62
2023/03/16 01:55:54;;;;;;;4.10;2.70;;;;;;;2.68;59.42;100574.13;5034235;28;20049;-61
2023/03/16 01:58:21;;;;;;;5.03;2.80;;;;;;;2.83;58.59;100568.75;5036098;28;20053;-61
2023/03/16 02:00:48;;;;;;;4.55;2.90;;;;;;;2.93;56.79;100573.53;5037226;28;20053;-64
2023/03/16 02:03:18;;;;;;;4.07;2.65;;;;;;;3.04;57.00;100572.53;5034746;27;20415;-61
2023/03/16 02:05:48;;;;;;;;;;;;;;;3.13;57.34;100573.72;5036061;28;20054;-61
2023/03/16 02:08:18;;;;;;;5.60;2.65;;;;;;;3.20;57.29;100571.56;5035362;27;19921;-61
2023/03/16 02:10:46;;;;;;;7.90;3.17;;;;;;;3.33;56.58;100564.78;5036814;28;20053;-61
2023/03/16 02:13:14;;;;;;;4.35;3.08;;;;;;;3.44;56.18;100562.94;5036047;28;20061;-61
2023/03/16 02:15:41;;;;;;;6.00;3.20;;;;;;;3.49;55.09;100556.66;5035470;27;20491;-61
2023/03/16 02:18:09;;;;;;;5.55;3.05;;;;;;;3.56;54.59;100547.03;5034881;27;20049;-61
2023/03/16 02:20:42;;;;;;;4.38;2.60;;;;;;;3.63;54.31;100542.16;5035839;28;20434;-61
2023/03/16 02:23:17;;;;;;;5.45;2.70;;;;;;;3.65;53.83;100539.97;5035581;28;20053;-61
2023/03/16 02:25:53;;;;;;;5.07;2.92;;;;;;;3.68;55.00;100527.56;5035632;28;20061;-62
2023/03/16 02:28:28;;;;;;;5.68;2.80;;;;;;;3.72;53.74;100533.38;5035839;28;20476;-61
2023/03/16 02:30:57;;;;;;;4.50;2.75;;;;;;;3.76;54.51;100520.69;5035777;28;20494;-60
2023/03/16 02:33:26;;;;;;;5.15;3.00;;;;;;;3.75;53.21;100530.91;5034413;27;20057;-60
2023/03/16 02:35:53;;;;;;;4.90;2.78;;;;;;;3.79;53.52;100525.69;5035587;28;20065;-60
2023/03/16 02:38:20;;;;;;;4.85;2.80;;;;;;;3.82;52.88;100517.72;5036340;28;20060;-61
2023/03/16 02:40:57;;;;;;;5.25;2.47;;;;;;;3.85;53.19;100517.19;5035731;28;20060;-60
2023/03/16 02:43:27;;;;;;;5.28;2.75;;;;;;;3.89;53.66;100517.47;5035443;28;20053;-60
2023/03/16 02:46:02;;;;;;;4.72;2.85;;;;;;;3.88;53.43;100521.31;5036355;28;20064;-61
2023/03/16 02:48:35;;;;;;;6.55;2.83;;;;;;;3.91;52.97;100515.28;5034153;27;20058;-60
2023/03/16 02:51:03;;;;;;;5.13;2.35;;;;;;;3.97;52.32;100513.34;5036419;28;20057;-60
2023/03/16 02:53:30;;;;;;;5.70;2.70;;;;;;;4.00;51.92;100516.41;5035187;28;20106;-61
2023/03/16 02:55:57;;;;;;;5.30;2.45;;;;;;;4.07;51.14;100518.91;5035432;28;20061;-60
2023/03/16 02:58:24;;;;;;;4.72;2.20;;;;;;;4.06;51.73;100501.56;5035352;28;20507;-61
2023/03/16 03:00:52;;;;;;;8.15;4.55;;;;;;;4.06;51.55;100498.78;5035393;28;20079;-61
2023/03/16 03:03:21;;;;;;;3.50;2.47;;;;;;;4.08;52.30;100515.06;5033116;27;20060;-61
2023/03/16 03:05:48;;;;;;;4.30;2.45;;;;;;;4.09;52.42;100511.19;5033688;27;20054;-61
2023/03/16 03:08:19;;;;;;;3.40;2.40;;;;;;;4.11;52.16;100508.19;5031129;28;20057;-61
2023/03/16 03:10:46;;;;;;;4.60;2.40;;;;;;;4.10;51.52;100506.53;5030438;28;20057;-61
2023/03/16 03:13:13;;;;;;;4.82;2.55;;;;;;;4.11;50.75;100499.91;5031101;28;20058;-60
2023/03/16 03:15:40;;;;;;;4.68;2.17;;;;;;;4.11;51.49;100497.16;5032197;28;20056;-61
2023/03/16 03:18:08;;;;;;;6.53;3.00;;;;;;;4.11;51.91;100494.41;5031344;28;20060;-60
2023/03/16 03:20:36;;;;;;;5.05;2.33;;;;;;;4.13;50.37;100503.22;5032024;28;20054;-61
2023/03/16 03:23:04;;;;;;;3.85;2.40;;;;;;;4.20;49.96;100499.13;5032207;28;20385;-61
2023/03/16 03:25:33;;;;;;;5.40;2.25;;;;;;;4.23;49.72;100492.25;5031636;28;20046;-60
2023/03/16 03:28:01;;;;;;;6.05;2.97;;;;;;;4.21;49.67;100488.94;5031804;28;20054;-61
2023/03/16 03:30:29;;;;;;;4.32;2.42;;;;;;;4.30;50.76;100479.00;5031791;28;20058;-60
2023/03/16 03:32:56;;;;;;;4.43;2.30;;;;;;;4.22;49.68;100483.16;5030807;28;20049;-60
2023/03/16 03:35:23;;;;;;;4.50;2.40;;;;;;;4.38;50.23;100480.41;5031855;28;20057;-61
2023/03/16 03:37:52;;;;;;;3.90;2.10;;;;;;;4.45;49.89;100469.94;5031621;28;20060;-60
2023/03/16 03:40:20;;;;;;;4.28;2.50;;;;;;;4.49;50.09;100468.28;5031607;28;20060;-61
2023/03/16 03:42:48;;;;;;;6.07;2.47;;;;;;;4.52;49.03;100475.22;5031638;28;20695;-61
2023/03/16 03:45:16;;;;;;;2.85;2.08;;;;;;;4.60;50.09;100471.88;5031409;28;20464;-60
2023/03/16 03:47:44;;;;;;;4.50;2.50;;;;;;;4.60;49.38;100467.22;5031424;27;20415;-61
2023/03/16 03:50:13;;;;;;;5.18;2.70;;;;;;;4.58;49.40;100469.41;5031277;28;20050;-61
2023/03/16 03:52:40;;;;;;;4.65;2.22;;;;;;;4.61;49.71;100470.78;5031346;28;20057;-60
2023/03/16 03:55:10;;;;;;;5.43;2.15;;;;;;;4.74;49.33;100473.00;5031149;28;20050;-61
2023/03/16 03:57:37;;;;;;;5.05;2.17;;;;;;;4.72;49.21;100455.88;5031156;28;20170;-58
2023/03/16 04:00:08;;;;;;;3.65;1.92;;;;;;;4.71;48.89;100462.53;5031022;28;20065;-58
2023/03/16 04:02:35;;;;;;;3.95;2.13;;;;;;;4.81;49.54;100464.47;5029591;27;20045;-58
2023/03/16 04:05:03;;;;;;;5.72;1.98;;;;;;;4.81;48.70;100457.00;5031195;28;20053;-58
2023/03/16 04:07:30;;;;;;;2.88;1.90;;;;;;;4.92;49.35;100457.00;5031070;28;20057;-58
2023/03/16 04:09:57;;;;;;;3.25;2.15;;;;;;;4.97;49.25;100462.50;5030914;28;20052;-58
2023/03/16 04:12:26;;;;;;;3.47;1.92;;;;;;;4.99;49.52;100461.13;5030523;28;20057;-58
2023/03/16 04:14:53;;;;;;;6.32;2.28;;;;;;;4.99;49.24;100452.84;5030267;28;20371;-58
2023/03/16 04:17:21;;;;;;;5.22;2.20;;;;;;;5.03;48.85;100459.47;5030037;28;20053;-58
2023/03/16 04:19:48;;;;;;;3.78;2.10;;;;;;;4.98;49.20;100448.44;5030967;28;20053;-58
2023/03/16 04:22:15;;;;;;;3.42;1.98;;;;;;;4.97;49.49;100448.72;5030895;28;20049;-58
2023/03/16 04:24:43;;;;;;;4.93;1.92;;;;;;;5.00;49.86;100449.00;5030376;28;20045;-58
2023/03/16 04:27:11;;;;;;;3.67;2.10;;;;;;;5.00;49.32;100443.47;5030791;28;20072;-58
2023/03/16 04:29:39;;;;;;;4.40;2.20;;;;;;;5.03;49.31;100442.91;5030518;28;20065;-58
2023/03/16 04:32:07;;;;;;;3.47;1.95;;;;;;;5.03;49.05;100437.38;5029264;27;20385;-58
2023/03/16 04:34:34;;;;;;;4.57;1.90;;;;;;;4.98;48.88;100433.81;5030817;28;20053;-58
2023/03/16 04:37:02;;;;;;;2.92;1.80;;;;;;;5.02;49.64;100435.75;5030791;28;20510;-58
2023/03/16 04:39:29;;;;;;;3.45;2.03;;;;;;;4.94;49.70;100439.06;5030629;28;20483;-58
2023/03/16 04:41:56;;;;;;;4.50;2.08;;;;;;;4.99;49.55;100440.97;5030483;28;20487;-58
2023/03/16 04:44:24;;;;;;;2.85;1.70;;;;;;;5.02;49.39;100419.19;5031034;28;20053;-58
2023/03/16 04:46:53;;;;;;;5.30;2.00;;;;;;;5.03;49.09;100420.00;5027934;28;20483;-58
2023/03/16 04:49:20;;;;;;;2.67;1.85;;;;;;;5.03;49.60;100417.22;5028319;28;20064;-58
2023/03/16 04:51:47;;;;;;;4.40;2.17;;;;;;;5.09;49.09;100416.13;5030285;28;20049;-58
2023/03/16 04:54:15;;;;;;;3.42;1.65;;;;;;;5.08;48.67;100428.25;5029969;28;20064;-58
2023/03/16 04:56:42;;;;;;;4.68;1.90;;;;;;;5.04;49.29;100405.91;5030239;28;20052;-58
2023/03/16 04:59:09;;;;;;;3.17;1.95;;;;;;;4.96;49.81;100412.00;5030087;28;20056;-58
2023/03/16 05:01:37;;;;;;;4.60;2.17;;;;;;;5.01;49.95;100405.66;5029899;28;20053;-58
2023/03/16 05:04:05;;;;;;;3.83;2.00;;;;;;;4.99;49.64;100402.34;5030412;28;20522;-58
2023/03/16 05:06:33;;;;;;;4.28;2.15;;;;;;;4.98;50.12;100401.50;5030252;28;20056;-58
2023/03/16 05:09:00;;;;;;;3.22;2.03;;;;;;;4.87;50.52;100417.28;5030019;28;20495;-58
2023/03/16 05:11:28;;;;;;;4.20;2.50;;;;;;;4.93;49.79;100401.50;5031510;28;20049;-57
2023/03/16 05:13:55;;;;;;;4.80;2.60;;;;;;;4.92;50.25;100397.09;5029833;28;20054;-57
2023/03/16 05:16:22;;;;;;;4.10;2.70;;;;;;;4.95;50.27;100396.53;5030228;28;20054;-57
2023/03/16 05:18:51;;;;;;;4.68;2.40;;;;;;;4.91;50.71;100394.63;5030125;28;20519;-57
2023/03/16 05:21:20;;;;;;;2.95;2.15;;;;;;;4.91;50.99;100389.09;5030385;28;20064;-57
2023/03/16 05:23:47;;;;;;;3.63;2.00;;;;;;;4.85;50.60;100397.41;5029317;28;20065;-57
2023/03/16 05:26:15;;;;;;;3.88;2.35;;;;;;;4.80;51.79;100407.59;5029893;28;20391;-57
2023/03/16 05:28:42;;;;;;;3.45;2.35;;;;;;;4.77;51.92;100400.72;5030254;28;20064;-57
2023/03/16 05:31:09;;;;;;;3.92;2.45;;;;;;;4.89;50.88;100386.59;5023806;28;20049;-59
2023/03/16 05:33:36;;;;;;;3.00;2.40;;;;;;;4.94;51.17;100396.84;5030725;28;20407;-58
2023/03/16 05:36:04;;;;;;;5.93;2.90;;;;;;;5.02;51.70;100385.22;5029002;28;20075;-58
2023/03/16 05:38:35;;;;;;;5.47;3.15;;;;;;;5.05;51.04;100398.47;5034577;27;20056;-58
2023/03/16 05:41:04;;;;;;;5.20;2.60;;;;;;;5.14;51.14;100391.25;5020892;28;20057;-58
2023/03/16 05:43:31;;;;;;;5.38;3.10;;;;;;;5.18;51.09;100397.88;5028091;28;20411;-58
2023/03/16 05:45:58;;;;;;;4.43;3.13;;;;;;;5.13;51.98;100403.41;5026703;28;20065;-58
2023/03/16 05:48:26;;;;;;;3.75;2.70;;;;;;;5.11;51.20;100391.81;5028640;28;20054;-59
2023/03/16 05:50:53;;;;;;;5.80;2.92;;;;;;;5.14;52.03;100394.00;5025060;28;20057;-58
2023/03/16 05:53:27;;;;;;;6.03;2.90;;;;;;;5.25;51.70;100398.41;5026183;28;20440;-58
2023/03/16 05:55:56;;;;;;;4.32;2.80;;;;;;;5.26;52.17;100402.00;5029521;28;20057;-58
2023/03/16 05:58:23;;;;;;;4.25;3.28;;;;;;;5.21;51.59;100402.03;5025360;28;20054;-58
2023/03/16 06:00:50;;;;;;;5.68;3.38;;;;;;;5.17;51.61;100400.94;5027637;28;20054;-58
2023/03/16 06:03:17;;;;;;;4.78;2.63;;;;;;;5.17;52.06;100406.44;5025939;28;20054;-58
2023/03/16 06:05:45;;;;;;;3.58;2.78;;;;;;;5.32;51.45;100411.09;5027699;28;20056;-58
2023/03/16 06:08:12;;;;;;;7.82;3.55;;;;;;;5.36;51.66;100406.66;5026281;28;20058;-58
2023/03/16 06:10:39;;;;;;;4.47;3.05;;;;;;;5.39;50.86;100417.16;5027197;28;20397;-58
2023/03/16 06:13:08;;;;;;;5.07;3.13;;;;;;;5.49;51.28;100406.88;5028106;28;20053;-58
2023/03/16 06:15:35;;;;;;;6.20;3.67;;;;;;;5.55;50.38;100404.94;5026997;28;20045;-58
2023/03/16 06:18:02;;;;;;;5.00;3.20;;;;;;;5.59;50.96;100410.72;5024603;28;20053;-58
2023/03/16 06:20:30;;;;;;;4.28;2.63;;;;;;;5.62;50.48;100410.97;5028058;28;20059;-58
2023/03/16 06:22:57;;;;;;;5.47;3.10;;;;;;;5.74;49.91;100415.38;5024830;28;20045;-58
2023/03/16 06:25:24;;;;;;;5.97;3.10;;;;;;;5.72;50.65;100414.81;5019304;28;20053;-58
2023/03/16 06:27:51;;;;;;;4.78;2.83;;;;;;;5.75;50.12;100414.25;5032024;28;20061;-58
2023/03/16 06:30:20;;;;;;;4.78;3.13;;;;;;;5.81;49.67;100408.41;5022820;28;20049;-58
2023/03/16 06:32:48;;;;;;;6.80;3.37;;;;;;;5.77;49.74;100406.50;5025979;28;20607;-58
2023/03/16 06:35:16;;;;;;;6.38;3.28;;;;;;;5.70;49.88;100418.69;5024676;28;20056;-58
2023/03/16 06:37:43;;;;;;;5.10;3.53;;;;;;;5.85;49.71;100411.41;5044834;28;20065;-58
2023/03/16 06:40:12;;;;;;;4.75;3.05;;;;;;;5.99;49.11;100420.78;5025546;28;20065;-58
2023/03/16 06:42:39;;;;;;;5.83;2.80;;;;;;;6.05;49.49;100405.00;5027289;28;20068;-58
2023/03/16 06:45:07;;;;;;;3.63;2.63;;;;;;;6.19;49.08;100397.69;5030112;27;20076;-58
2023/03/16 06:47:36;;;;;;;4.45;3.35;;;;;;;6.26;48.88;100402.94;5031245;28;20057;-58
2023/03/16 06:50:05;;;;;;;4.28;2.70;;;;;;;6.39;48.78;100393.97;5031712;28;20541;-58
2023/03/16 06:52:32;;;;;;;6.00;2.70;;;;;;;6.72;47.81;100388.72;5031447;28;20500;-58
2023/03/16 06:55:00;;;;;;;4.43;2.92;;;;;;;6.98;47.52;100392.06;5031854;28;20135;-58
2023/03/16 06:57:27;;;;;;;4.18;2.42;;;;;;;7.10;46.61;100403.56;5031943;28;20381;-58
2023/03/16 06:59:54;;;;;;;3.75;2.65;;;;;;;7.11;46.57;100398.84;5031296;27;20080;-58
2023/03/16 07:02:22;;;;;;;5.47;2.95;;;;;;;7.18;45.91;100401.25;5037250;27;20057;-58
2023/03/16 07:04:51;;;;;;;5.80;2.95;;;;;;;7.02;46.42;100400.63;5029879;27;20060;-58
2023/03/16 07:07:19;;;;;;;4.57;2.53;;;;;;;6.94;46.84;100395.72;5029560;28;20041;-58
2023/03/16 07:09:46;;;;;;;3.33;2.42;;;;;;;7.01;47.21;100408.06;5029351;28;20053;-58
2023/03/16 07:12:13;;;;;;;3.17;2.22;;;;;;;7.07;46.73;100414.41;5029792;28;20057;-58
2023/03/16 07:14:41;;;;;;;5.03;2.80;;;;;;;7.22;46.68;100400.38;5030508;28;20057;-58
2023/03/16 07:17:08;;;;;;;3.58;2.50;;;;;;;7.28;45.98;100399.22;5030978;27;20049;-58
2023/03/16 07:19:35;;;;;;;4.13;2.97;;;;;;;7.47;46.34;100398.44;5028495;27;20050;-58
2023/03/16 07:22:04;;;;;;;4.88;2.85;;;;;;;7.53;45.09;100398.09;5030313;28;20407;-58
2023/03/16 07:24:31;;;;;;;4.25;2.65;;;;;;;7.57;46.12;100397.50;5030604;28;20053;-58
2023/03/16 07:26:58;;;;;;;5.07;2.65;;;;;;;7.50;45.46;100406.19;5025334;28;20495;-59
2023/03/16 07:29:26;;;;;;;5.90;2.70;;;;;;;7.60;44.93;100413.53;5028898;28;20053;-59
2023/03/16 07:31:53;;;;;;;3.42;2.58;;;;;;;7.92;45.31;100401.75;5027023;28;20071;-59
2023/03/16 07:34:21;;;;;;;5.00;2.75;;;;;;;8.10;44.56;100409.25;5030325;28;20080;-59
2023/03/16 07:36:48;;;;;;;4.60;2.70;;;;;;;8.19;43.42;100403.03;5030292;28;20054;-59
2023/03/16 07:39:17;;;;;;;3.22;2.30;;;;;;;8.25;44.35;100408.22;5031406;28;20050;-59
2023/03/16 07:41:44;;;;;;;4.07;2.53;;;;;;;8.07;43.81;100409.03;5031435;28;20415;-59
2023/03/16 07:44:11;;;;;;;3.50;2.60;;;;;;;8.35;43.87;100410.00;5032133;28;20492;-59
2023/03/16 07:46:38;;;;;;;4.00;2.78;;;;;;;7.98;43.28;100411.66;5030799;27;20050;-59
2023/03/16 07:49:08;;;;;;;3.78;2.40;;;;;;;8.65;43.38;100400.41;5030985;28;20409;-59
2023/03/16 07:51:35;;;;;;;3.13;2.22;;;;;;;9.44;41.14;100413.41;5031356;28;20057;-59
2023/03/16 07:54:03;;;;;;;4.43;2.58;;;;;;;9.67;40.71;100417.13;5030660;28;20050;-59
2023/03/16 07:56:33;;;;;;;3.80;2.47;;;;;;;10.21;38.81;100410.97;5031348;28;20041;-59
2023/03/16 07:59:01;;;;;;;3.95;2.50;;;;;;;11.95;37.03;100409.22;5031310;28;20472;-59
2023/03/16 08:01:28;;;;;;;3.60;2.10;;;;;;;13.00;35.10;100402.44;5019292;28;20054;-59
2023/03/16 08:03:55;;;;;;;2.83;2.10;;;;;;;13.16;33.78;100405.50;5011679;28;20433;-59
2023/03/16 08:06:24;;;;;;;3.33;2.17;;;;;;;13.14;33.97;100402.22;5011350;28;20057;-59
2023/03/16 08:08:51;;;;;;;3.90;2.40;;;;;;;12.83;34.28;100416.47;5011223;28;20054;-59
2023/03/16 08:11:22;;;;;;;3.92;2.00;;;;;;;12.88;33.74;100405.09;5011223;28;20065;-60
2023/03/16 08:13:53;;;;;;;3.85;2.00;;;;;;;12.83;33.57;100407.25;5011320;28;20050;-59
2023/03/16 08:16:21;;;;;;;3.22;1.80;;;;;;;12.98;33.00;100392.75;5024776;28;20061;-59
2023/03/16 08:18:49;;;;;;;2.60;1.90;;;;;;;13.66;32.17;100398.44;5030804;28;20060;-59
2023/03/16 08:21:16;;;;;;;3.00;1.73;;;;;;;13.95;30.95;100410.81;5030638;28;20057;-59
2023/03/16 08:23:46;;;;;;;3.28;2.13;;;;;;;14.02;31.89;100399.88;5030448;28;20068;-59
2023/03/16 08:26:13;;;;;;;3.40;1.95;;;;;;;14.86;29.89;100390.66;5030968;28;20054;-59
2023/03/16 08:28:40;;;;;;;3.20;1.90;;;;;;;14.73;30.61;100382.19;5029952;28;20057;-59
2023/03/16 08:31:09;;;;;;;2.38;1.52;;;;;;;15.22;30.25;100370.28;5015535;28;20054;-59
2023/03/16 08:33:37;;;;;;;2.50;1.60;;;;;;;15.69;28.47;100380.25;5010685;28;20053;-59
2023/03/16 08:36:06;;;;;;;3.50;1.88;;;;;;;15.32;29.17;100381.03;5010483;28;20385;-59
2023/03/16 08:38:33;;;;;;;3.47;1.65;;;;;;;14.69;30.21;100374.81;5010964;28;20400;-59
2023/03/16 08:41:01;;;;;;;2.63;1.75;;;;;;;14.68;30.42;100373.16;5010955;28;20058;-59
2023/03/16 08:43:28;;;;;;;2.33;1.58;;;;;;;13.95;30.73;100385.59;5011047;28;20058;-59
2023/03/16 08:45:55;;;;;;;3.30;1.98;;;;;;;13.33;31.40;100395.47;5025422;28;20054;-59
2023/03/16 08:48:24;;;;;;;3.17;2.00;;;;;;;12.85;32.42;100389.00;5030737;28;20061;-59
2023/03/16 08:50:52;;;;;;;2.67;1.67;;;;;;;12.62;33.15;100387.53;5030212;28;20053;-59
2023/03/16 08:53:20;;;;;;;6.95;1.90;;;;;;;12.43;33.17;100397.09;5029995;28;20049;-59
2023/03/16 08:55:47;;;;;;;2.65;1.73;;;;;;;12.65;32.63;100400.88;5030515;28;20399;-59
2023/03/16 08:58:14;;;;;;;3.97;1.83;;;;;;;12.52;33.07;100402.69;5030353;28;20049;-59
2023/03/16 09:00:42;;;;;;;3.08;1.73;;;;;;;12.33;33.44;100384.28;5028851;28;20053;-59
2023/03/16 09:03:10;;;;;;;3.05;1.75;;;;;;;11.99;33.07;100390.66;5028503;28;20424;-59
2023/03/16 09:05:39;;;;;;;3.85;1.77;;;;;;;11.91;33.85;100406.25;5027150;28;20064;-59
2023/03/16 09:08:07;;;;;;;3.38;1.80;;;;;;;11.28;34.58;100390.75;5030163;28;20049;-60
2023/03/16 09:10:35;;;;;;;3.10;1.60;;;;;;;11.65;34.74;100402.50;5029739;28;20049;-59
2023/03/16 09:13:03;;;;;;;3.10;1.90;;;;;;;11.48;34.74;100400.50;5029897;28;20058;-59
2023/03/16 09:15:31;;;;;;;3.03;2.00;;;;;;;11.53;34.51;100405.94;5029112;28;20057;-59
2023/03/16 09:17:59;;;;;;;4.45;2.10;;;;;;;11.16;35.49;100408.06;5030347;28;20049;-59
2023/03/16 09:20:27;;;;;;;3.20;2.05;;;;;;;11.06;36.37;100402.75;5030068;28;20064;-59
2023/03/16 09:22:56;;;;;;;2.60;1.85;;;;;;;10.99;36.41;100407.97;5030233;28;20060;-59
2023/03/16 09:25:24;;;;;;;5.60;1.83;;;;;;;10.94;36.67;100409.75;5029754;28;20056;-59
2023/03/16 09:27:51;;;;;;;3.47;2.10;;;;;;;10.86;36.80;100404.94;5029883;28;20407;-59
2023/03/16 09:30:18;;;;;;;2.30;1.67;;;;;;;10.68;36.72;100408.75;5028962;28;20057;-59
2023/03/16 09:32:47;;;;;;;3.50;1.88;;;;;;;10.14;36.75;100423.34;5030184;28;20057;-59
2023/03/16 09:35:14;;;;;;;4.53;2.25;;;;;;;10.22;37.95;100424.53;5029623;28;20057;-60
2023/03/16 09:37:42;;;;;;;4.68;2.17;;;;;;;10.00;37.46;100422.56;5030598;28;20049;-59
2023/03/16 09:40:22;;;;;;;3.80;2.10;;;;;;;10.01;38.21;100421.41;5028311;28;20068;-59
2023/03/16 09:43:00;;;;;;;3.60;1.92;;;;;;;9.95;38.20;100426.28;5015020;28;20058;-59
2023/03/16 09:45:35;;;;;;;3.55;1.80;;;;;;;10.04;39.26;100419.97;5021721;28;20127;-59
2023/03/16 09:48:05;;;;;;;3.13;2.10;;;;;;;10.30;37.67;100434.16;5029725;28;20491;-59
2023/03/16 09:50:35;;;;;;;2.50;1.90;;;;;;;10.23;37.86;100414.25;5029752;28;20060;-59
2023/03/16 09:53:10;;;;;;;3.25;2.20;;;;;;;10.30;38.44;100417.44;5028979;28;20061;-59
2023/03/16 09:55:42;;;;;;;2.75;2.00;;;;;;;10.08;38.45;100412.63;5030002;28;20057;-59
2023/03/16 09:58:16;;;;;;;3.30;1.90;;;;;;;10.26;38.19;100410.84;5029787;28;20076;-59
2023/03/16 10:00:51;;;;;;;3.42;1.77;;;;;;;10.83;38.35;100396.38;5028065;28;20072;-59
2023/03/16 10:03:34;;;;;;;3.15;2.10;;;;;;;11.47;36.92;100404.44;5027199;28;20053;-59
2023/03/16 10:06:04;;;;;;;4.07;2.25;;;;;;;11.89;35.63;100405.75;5029530;28;20049;-59
2023/03/16 10:08:37;;;;;;;3.00;2.00;;;;;;;12.27;35.39;100390.38;5028832;28;20053;-59
2023/03/16 10:11:17;;;;;;;3.10;1.80;;;;;;;13.75;32.46;100390.84;5029331;28;20066;-59
2023/03/16 10:13:52;;;;;;;3.90;2.08;;;;;;;14.74;31.69;100386.66;5029224;28;20423;-59
2023/03/16 10:16:24;;;;;;;3.88;1.80;;;;;;;15.80;30.23;100382.25;5030221;28;20060;-59
2023/03/16 10:19:00;;;;;;;3.28;1.65;;;;;;;16.71;28.31;100389.41;5032926;28;20400;-59
2023/03/16 10:21:28;;;;;;;3.50;2.10;;;;;;;17.08;28.06;100385.63;5032117;28;20072;-59
2023/03/16 10:24:01;;;;;;;2.93;1.67;;;;;;;16.41;27.68;100384.13;5031715;28;20060;-59
2023/03/16 10:26:40;;;;;;;2.47;1.70;;;;;;;16.49;27.63;100395.59;5032661;28;20981;-59
2023/03/16 10:29:12;;;;;;;5.18;2.42;;;;;;;16.96;27.26;100381.69;5032235;28;20057;-59
2023/03/16 10:31:40;;;;;;;2.40;1.63;;;;;;;18.83;26.52;100377.69;5031431;28;20064;-58
2023/03/16 10:34:09;;;;;;;2.45;1.75;;;;;;;19.62;24.73;100374.28;5032511;28;20060;-58
2023/03/16 10:36:41;;;;;;;3.50;1.60;;;;;;;20.01;24.00;100407.22;5032780;28;20054;-58
2023/03/16 10:39:10;;;;;;;3.42;1.73;;;;;;;19.66;24.86;100363.03;5033192;28;20065;-58
2023/03/16 10:41:42;;;;;;;2.58;1.58;;;;;;;19.48;25.33;100369.19;5026833;28;21081;-58
2023/03/16 10:44:11;;;;;;;3.05;1.70;;;;;;;18.51;25.93;100383.47;5012979;28;20057;-58
2023/03/16 10:46:39;;;;;;;;;;;;;;;17.68;25.95;100375.13;5052425;28;20080;-59
2023/03/16 10:49:20;;;;;;;2.88;1.73;;;;;;;17.78;26.20;100374.53;5052884;28;19928;-58
2023/03/16 10:51:48;;;;;;;2.92;1.70;;;;;;;17.32;26.66;100395.91;5052723;28;20052;-58
2023/03/16 10:54:18;;;;;;;2.67;1.60;;;;;;;17.25;27.26;100385.28;5051674;28;20496;-59
2023/03/16 10:56:49;;;;;;;2.28;1.58;;;;;;;16.99;28.06;100378.19;5052742;28;20048;-58
2023/03/16 10:59:28;;;;;;;2.47;1.67;;;;;;;16.18;28.10;100383.84;5047806;28;20050;-58
2023/03/16 11:01:56;;;;;;;2.55;1.83;;;;;;;16.33;29.39;100373.03;5020277;28;20518;-58
2023/03/16 11:04:23;;;;;;;2.90;1.60;;;;;;;15.85;29.60;100377.59;5032271;28;20068;-59
2023/03/16 11:06:54;;;;;;;3.33;1.58;;;;;;;14.94;30.64;100370.13;5032773;28;20395;-58
2023/03/16 11:09:25;;;;;;;2.50;1.58;;;;;;;14.36;30.96;100386.78;5031973;28;20061;-58
2023/03/16 11:11:53;;;;;;;2.47;1.80;;;;;;;14.33;31.82;100351.03;5031995;28;20050;-58
2023/03/16 11:14:26;;;;;;;2.72;1.67;;;;;;;14.43;31.68;100356.22;5031391;28;20060;-58
2023/03/16 11:17:03;;;;;;;2.55;1.40;;;;;;;14.23;32.38;100346.66;5031449;28;20049;-58
2023/03/16 11:19:33;;;;;;;3.45;1.67;;;;;;;13.92;32.90;100369.47;5032479;28;20054;-58
2023/03/16 11:22:06;;;;;;;3.95;1.98;;;;;;;13.57;32.84;100352.91;5031883;28;20053;-58
2023/03/16 11:24:44;;;;;;;3.00;1.60;;;;;;;13.28;33.62;100340.50;5032127;28;20480;-58
2023/03/16 11:27:21;;;;;;;3.17;1.65;;;;;;;13.18;34.01;100340.88;5030729;28;20056;-58
2023/03/16 11:30:03;;;;;;;3.38;1.60;;;;;;;12.98;33.98;100331.25;5030700;28;20057;-58
2023/03/16 11:32:34;;;;;;;3.15;1.77;;;;;;;13.09;34.56;100324.13;5031327;28;20061;-59
2023/03/16 11:35:03;;;;;;;2.85;1.75;;;;;;;12.98;34.64;100322.88;5030972;27;20053;-59
2023/03/16 11:37:46;;;;;;;3.65;1.90;;;;;;;12.84;34.42;100314.66;5031455;28;20058;-59
2023/03/16 11:40:34;;;;;;;3.13;1.67;;;;;;;12.43;35.09;100318.88;5031582;28;20049;-59